Tuesday, February 20, 2018, 9:28 AM GMT
Back to Local

CYOW, Ottawa Int'L. Ont.

Location: , , Canada Lat: 45.317
Local Time: 9:28 AM GMT ( 9:28 GMT) Lon: -75.667
Time Zone: GMT Elev: 380 ft

Show me the last for .
Show Coded

Time T Td Feel RH Dir Speed Gust Alt SLP Vis Weather Sky Remarks
2018-02-20 09:00 34 34 27 100 50° 8 - 30.11 30.13 0 -RA BR OVC013 None
2018-02-20 08:47 34 32 27 93 40° 8 - 30.11 30.13 0 -RA BR OVC009 None
2018-02-20 08:00 34 32 27 93 40° 8 - 30.11 30.13 0 BR VV002 None
2018-02-20 07:23 34 32 28 93 40° 7 - 30.11 30.12 0 BR VV002 None
2018-02-20 07:00 34 34 29 100 40° 6 - 30.10 30.12 0 BR OVC002 None
2018-02-20 06:27 34 34 28 100 50° 7 - 30.10 30.12 3 BR OVC021 None
2018-02-20 06:00 34 34 28 100 70° 7 - 30.09 30.11 3 -RA BR OVC020 None
2018-02-20 05:00 34 34 27 100 50° 8 - 30.12 30.13 4 -RA BR FEW015 OVC025 None
2018-02-20 04:40 34 34 29 100 360° 6 - 30.13 30.15 2 -RA BR OVC003 Pressure rising rapidly
2018-02-20 04:00 36 34 30 93 70° 7 - 30.09 30.11 0 -RA BR OVC003 None
2018-02-20 03:00 36 34 31 93 70° 6 - 30.09 30.11 1 -RA BR OVC003 None
2018-02-20 02:42 36 34 31 93 70° 6 - 30.10 30.12 1 -RA BR OVC003 None
2018-02-20 02:00 36 34 32 93 60° 5 - 30.11 30.13 1 -DZ BR OVC003 None
2018-02-20 01:11 36 34 32 93 90° 5 - 30.09 30.11 0 -DZ BR OVC003 None
2018-02-20 01:00 36 34 32 93 90° 5 - 30.09 30.11 3 -DZ BR OVC003 None
2018-02-20 00:00 36 36 33 100 110° 3 - 30.10 30.12 3 -DZ BR OVC006 None
2018-02-19 23:33 36 36 32 100 140° 5 - 30.10 30.12 4 -DZ BR OVC008 None
2018-02-19 23:22 37 36 33 93 150° 6 - 30.10 30.12 4 -DZ BR OVC009 None
2018-02-19 23:00 37 34 34 86 120° 5 - 30.09 30.11 5 -RA BR OVC012 None
2018-02-19 22:53 36 34 32 93 100° 5 - 30.09 30.11 5 -RA BR OVC013 None
2018-02-19 22:38 36 34 32 93 110° 5 - 30.09 30.11 7 -RA OVC017 None
2018-02-19 22:07 36 34 31 93 110° 6 - 30.08 30.10 8 OVC019 None
2018-02-19 22:00 37 34 33 86 110° 6 - 30.09 30.11 8 OVC020 None
2018-02-19 21:52 37 34 33 86 120° 6 - 30.09 30.11 8 OVC020 None
2018-02-19 21:00 37 32 33 80 140° 6 - 30.09 30.11 6 -RA BR OVC024 None
2018-02-19 20:00 41 32 36 70 200° 7 - 30.09 30.11 15 -RA OVC059 None
2018-02-19 19:32 43 30 37 60 210° 10 - 30.10 30.12 15 -RA OVC066 None
2018-02-19 19:00 43 30 37 60 210° 12 - 30.11 30.13 15 OVC070 None
2018-02-19 18:00 43 28 35 56 200° 13 18 30.10 30.12 15 BKN075 OVC120 None
2018-02-19 17:00 41 27 32 56 200° 14 20 30.13 30.15 15 FEW095 BKN120 OVC250 None
2018-02-19 15:00 34 21 26 59 170° 9 - 30.16 30.18 15 FEW190 BKN250 None
2018-02-19 14:00 28 19 20 68 110° 8 - 30.19 30.21 15 OVC250 None
2018-02-19 13:00 25 19 15 79 110° 9 - 30.21 30.24 15 FEW200 BKN250 None
2018-02-19 12:00 25 19 16 79 100° 8 - 30.22 30.24 15 FEW200 BKN250 None
2018-02-19 11:00 25 19 15 79 60° 9 - 30.24 30.26 15 SCT180 BKN220 None
2018-02-19 10:00 27 21 17 79 50° 9 - 30.24 30.27 15 BKN180 OVC220 None

Support USWX by starting your Amazon purchase here.